sensor_id;sensor_type;location;lat;lon;timestamp;pressure;altitude;pressure_sealevel;temperature;humidity
41513;BME280;27244;59.940;30.280;2023-04-28T00:01:20;101199.03;;;24.86;26.67
41513;BME280;27244;59.940;30.280;2023-04-28T00:03:46;101193.38;;;24.86;26.77
41513;BME280;27244;59.940;30.280;2023-04-28T00:06:14;101187.78;;;24.82;26.63
41513;BME280;27244;59.940;30.280;2023-04-28T00:08:41;101203.88;;;24.85;26.67
41513;BME280;27244;59.940;30.280;2023-04-28T00:11:10;101208.66;;;24.88;27.10
41513;BME280;27244;59.940;30.280;2023-04-28T00:13:37;101199.81;;;24.86;26.86
41513;BME280;27244;59.940;30.280;2023-04-28T00:16:04;101194.19;;;24.86;27.06
41513;BME280;27244;59.940;30.280;2023-04-28T00:18:31;101204.66;;;24.86;26.93
41513;BME280;27244;59.940;30.280;2023-04-28T00:20:58;101200.63;;;24.87;27.11
41513;BME280;27244;59.940;30.280;2023-04-28T00:23:26;101201.41;;;24.87;27.05
41513;BME280;27244;59.940;30.280;2023-04-28T00:25:53;101192.59;;;24.85;26.87
41513;BME280;27244;59.940;30.280;2023-04-28T00:28:23;101203.00;;;24.88;27.31
41513;BME280;27244;59.940;30.280;2023-04-28T00:30:50;101200.97;;;24.89;27.13
41513;BME280;27244;59.940;30.280;2023-04-28T00:33:17;101203.09;;;24.85;27.12
41513;BME280;27244;59.940;30.280;2023-04-28T00:35:44;101201.06;;;24.85;27.05
41513;BME280;27244;59.940;30.280;2023-04-28T00:38:11;101206.25;;;24.87;27.04
41513;BME280;27244;59.940;30.280;2023-04-28T00:40:38;101211.13;;;24.86;27.23
41513;BME280;27244;59.940;30.280;2023-04-28T00:43:05;101205.47;;;24.86;27.19
41513;BME280;27244;59.940;30.280;2023-04-28T00:45:34;101203.88;;;24.85;27.25
41513;BME280;27244;59.940;30.280;2023-04-28T00:48:01;101216.41;;;24.84;27.01
41513;BME280;27244;59.940;30.280;2023-04-28T00:50:28;101208.75;;;24.85;27.06
41513;BME280;27244;59.940;30.280;2023-04-28T00:52:55;101210.31;;;24.86;27.00
41513;BME280;27244;59.940;30.280;2023-04-28T00:55:23;101211.91;;;24.87;27.24
41513;BME280;27244;59.940;30.280;2023-04-28T00:57:55;101200.19;;;24.88;26.94
41513;BME280;27244;59.940;30.280;2023-04-28T01:00:23;101205.47;;;24.86;27.11
41513;BME280;27244;59.940;30.280;2023-04-28T01:02:51;101199.81;;;24.86;26.91
41513;BME280;27244;59.940;30.280;2023-04-28T01:05:20;101194.19;;;24.86;27.05
41513;BME280;27244;59.940;30.280;2023-04-28T01:07:47;101192.59;;;24.85;27.07
41513;BME280;27244;59.940;30.280;2023-04-28T01:10:15;101197.00;;;24.86;26.89
41513;BME280;27244;59.940;30.280;2023-04-28T01:12:42;101197.81;;;24.87;27.17
41513;BME280;27244;59.940;30.280;2023-04-28T01:15:15;101195.69;;;24.91;26.97
41513;BME280;27244;59.940;30.280;2023-04-28T01:17:44;101194.19;;;24.86;26.87
41513;BME280;27244;59.940;30.280;2023-04-28T01:20:13;101207.06;;;24.87;26.80
41513;BME280;27244;59.940;30.280;2023-04-28T01:22:40;101202.66;;;24.86;27.14
41513;BME280;27244;59.940;30.280;2023-04-28T01:25:09;101207.50;;;24.86;27.10
41513;BME280;27244;59.940;30.280;2023-04-28T01:27:36;101201.06;;;24.85;26.87
41513;BME280;27244;59.940;30.280;2023-04-28T01:30:04;101202.31;;;24.84;27.09
41513;BME280;27244;59.940;30.280;2023-04-28T01:32:32;101193.44;;;24.82;27.19
41513;BME280;27244;59.940;30.280;2023-04-28T01:34:59;101204.66;;;24.86;26.86
41513;BME280;27244;59.940;30.280;2023-04-28T01:37:26;101203.88;;;24.85;26.92
41513;BME280;27244;59.940;30.280;2023-04-28T01:39:53;101212.34;;;24.85;26.95
41513;BME280;27244;59.940;30.280;2023-04-28T01:42:21;101205.94;;;24.85;27.18
41513;BME280;27244;59.940;30.280;2023-04-28T01:44:48;101209.50;;;24.85;26.86
41513;BME280;27244;59.940;30.280;2023-04-28T01:47:15;101205.13;;;24.84;27.15
41513;BME280;27244;59.940;30.280;2023-04-28T01:49:42;101209.50;;;24.85;27.05
41513;BME280;27244;59.940;30.280;2023-04-28T01:52:09;101209.50;;;24.85;26.96
41513;BME280;27244;59.940;30.280;2023-04-28T01:54:36;101203.09;;;24.85;27.02
41513;BME280;27244;59.940;30.280;2023-04-28T01:57:03;101202.31;;;24.84;26.88
41513;BME280;27244;59.940;30.280;2023-04-28T01:59:32;101210.31;;;24.86;26.93
41513;BME280;27244;59.940;30.280;2023-04-28T02:01:59;101203.53;;;24.83;26.86
41513;BME280;27244;59.940;30.280;2023-04-28T02:04:26;101206.75;;;24.82;26.93
41513;BME280;27244;59.940;30.280;2023-04-28T02:06:53;101216.41;;;24.84;27.00
41513;BME280;27244;59.940;30.280;2023-04-28T02:09:20;101217.66;;;24.83;26.99
41513;BME280;27244;59.940;30.280;2023-04-28T02:11:47;101217.66;;;24.83;27.03
41513;BME280;27244;59.940;30.280;2023-04-28T02:14:14;101219.63;;;24.83;26.92
41513;BME280;27244;59.940;30.280;2023-04-28T02:16:43;101210.78;;;24.84;26.76
41513;BME280;27244;59.940;30.280;2023-04-28T02:19:10;101210.38;;;24.82;26.99
41513;BME280;27244;59.940;30.280;2023-04-28T02:21:37;101214.81;;;24.83;27.13
41513;BME280;27244;59.940;30.280;2023-04-28T02:24:06;101216.00;;;24.82;27.01
41513;BME280;27244;59.940;30.280;2023-04-28T02:26:33;101214.44;;;24.81;26.91
41513;BME280;27244;59.940;30.280;2023-04-28T02:29:00;101214.81;;;24.83;26.88
41513;BME280;27244;59.940;30.280;2023-04-28T02:31:31;101218.84;;;24.82;26.87
41513;BME280;27244;59.940;30.280;2023-04-28T02:34:00;101220.47;;;24.83;27.03
41513;BME280;27244;59.940;30.280;2023-04-28T02:36:27;101227.31;;;24.82;26.80
41513;BME280;27244;59.940;30.280;2023-04-28T02:38:54;101216.47;;;24.81;26.90
41513;BME280;27244;59.940;30.280;2023-04-28T02:41:21;101218.03;;;24.82;27.02
41513;BME280;27244;59.940;30.280;2023-04-28T02:43:48;101214.44;;;24.81;27.03
41513;BME280;27244;59.940;30.280;2023-04-28T02:46:15;101215.69;;;24.80;27.19
41513;BME280;27244;59.940;30.280;2023-04-28T02:48:42;101207.31;;;24.77;26.92
41513;BME280;27244;59.940;30.280;2023-04-28T02:51:12;101210.38;;;24.82;26.80
41513;BME280;27244;59.940;30.280;2023-04-28T02:53:40;101218.50;;;24.80;26.96
41513;BME280;27244;59.940;30.280;2023-04-28T02:56:07;101219.28;;;24.81;26.83
41513;BME280;27244;59.940;30.280;2023-04-28T02:58:33;101229.78;;;24.80;26.72
41513;BME280;27244;59.940;30.280;2023-04-28T03:01:01;101228.19;;;24.79;26.89
41513;BME280;27244;59.940;30.280;2023-04-28T03:03:28;101223.34;;;24.80;26.96
41513;BME280;27244;59.940;30.280;2023-04-28T03:05:54;101227.38;;;24.79;26.67
41513;BME280;27244;59.940;30.280;2023-04-28T03:08:24;101229.41;;;24.78;26.90
41513;BME280;27244;59.940;30.280;2023-04-28T03:10:52;101230.22;;;24.79;26.79
41513;BME280;27244;59.940;30.280;2023-04-28T03:13:19;101215.31;;;24.78;26.78
41513;BME280;27244;59.940;30.280;2023-04-28T03:15:47;101205.72;;;24.76;26.71
41513;BME280;27244;59.940;30.280;2023-04-28T03:18:14;101220.19;;;24.78;26.92
41513;BME280;27244;59.940;30.280;2023-04-28T03:20:42;101226.59;;;24.78;26.92
41513;BME280;27244;59.940;30.280;2023-04-28T03:23:09;101213.81;;;24.74;26.72
41513;BME280;27244;59.940;30.280;2023-04-28T03:25:37;101218.94;;;24.79;26.75
41513;BME280;27244;59.940;30.280;2023-04-28T03:28:04;101230.66;;;24.77;26.79
41513;BME280;27244;59.940;30.280;2023-04-28T03:30:31;101231.47;;;24.78;26.79
41513;BME280;27244;59.940;30.280;2023-04-28T03:32:58;101241.97;;;24.77;26.72
41513;BME280;27244;59.940;30.280;2023-04-28T03:35:25;101238.75;;;24.75;26.96
41513;BME280;27244;59.940;30.280;2023-04-28T03:37:53;101234.72;;;24.76;26.77
41513;BME280;27244;59.940;30.280;2023-04-28T03:40:20;101238.34;;;24.77;26.90
41513;BME280;27244;59.940;30.280;2023-04-28T03:43:20;101227.06;;;24.77;26.82
41513;BME280;27244;59.940;30.280;2023-04-28T03:46:10;101236.31;;;24.77;26.71
41513;BME280;27244;59.940;30.280;2023-04-28T03:48:37;101244.41;;;24.75;26.72
41513;BME280;27244;59.940;30.280;2023-04-28T03:51:04;101233.91;;;24.76;26.78
41513;BME280;27244;59.940;30.280;2023-04-28T03:53:31;101232.41;;;24.71;26.73
41513;BME280;27244;59.940;30.280;2023-04-28T03:55:59;101237.19;;;24.74;26.66
41513;BME280;27244;59.940;30.280;2023-04-28T03:58:27;101255.69;;;24.75;27.10
41513;BME280;27244;59.940;30.280;2023-04-28T04:00:54;101246.44;;;24.75;26.77
41513;BME280;27244;59.940;30.280;2023-04-28T04:03:21;101239.22;;;24.74;27.02
41513;BME280;27244;59.940;30.280;2023-04-28T04:05:50;101246.88;;;24.73;26.89
41513;BME280;27244;59.940;30.280;2023-04-28T04:08:18;101251.31;;;24.74;26.68
41513;BME280;27244;59.940;30.280;2023-04-28T04:10:45;101250.13;;;24.72;26.68
41513;BME280;27244;59.940;30.280;2023-04-28T04:13:12;101246.88;;;24.73;26.66
41513;BME280;27244;59.940;30.280;2023-04-28T04:15:43;101254.13;;;24.74;26.85
41513;BME280;27244;59.940;30.280;2023-04-28T04:18:10;101251.31;;;24.74;26.76
41513;BME280;27244;59.940;30.280;2023-04-28T04:20:57;101252.53;;;24.73;26.72
41513;BME280;27244;59.940;30.280;2023-04-28T04:23:24;101254.19;;;24.71;26.91
41513;BME280;27244;59.940;30.280;2023-04-28T04:25:51;101253.50;;;24.67;26.71
41513;BME280;27244;59.940;30.280;2023-04-28T04:28:18;101252.16;;;24.71;26.75
41513;BME280;27244;59.940;30.280;2023-04-28T04:30:46;101256.94;;;24.74;26.79
41513;BME280;27244;59.940;30.280;2023-04-28T04:33:13;101251.72;;;24.73;26.56
41513;BME280;27244;59.940;30.280;2023-04-28T04:35:41;101263.03;;;24.73;26.70
41513;BME280;27244;59.940;30.280;2023-04-28T04:38:08;101259.41;;;24.72;26.80
41513;BME280;27244;59.940;30.280;2023-04-28T04:40:36;101261.41;;;24.72;26.62
41513;BME280;27244;59.940;30.280;2023-04-28T04:43:03;101262.22;;;24.72;26.84
41513;BME280;27244;59.940;30.280;2023-04-28T04:45:36;101267.53;;;24.70;26.76
41513;BME280;27244;59.940;30.280;2023-04-28T04:48:06;101279.94;;;24.73;26.94
41513;BME280;27244;59.940;30.280;2023-04-28T04:50:33;101273.16;;;24.70;26.72
41513;BME280;27244;59.940;30.280;2023-04-28T04:53:01;101267.16;;;24.68;26.82
41513;BME280;27244;59.940;30.280;2023-04-28T04:55:28;101270.34;;;24.70;26.81
41513;BME280;27244;59.940;30.280;2023-04-28T04:57:56;101262.66;;;24.71;26.83
41513;BME280;27244;59.940;30.280;2023-04-28T05:00:41;101267.53;;;24.70;26.80
41513;BME280;27244;59.940;30.280;2023-04-28T05:03:11;101267.16;;;24.68;26.78
41513;BME280;27244;59.940;30.280;2023-04-28T05:05:39;101271.91;;;24.71;26.66
41513;BME280;27244;59.940;30.280;2023-04-28T05:08:12;101271.09;;;24.71;26.86
41513;BME280;27244;59.940;30.280;2023-04-28T05:10:39;101269.97;;;24.68;26.86
41513;BME280;27244;59.940;30.280;2023-04-28T05:13:07;101267.94;;;24.69;26.72
41513;BME280;27244;59.940;30.280;2023-04-28T05:15:34;101271.09;;;24.71;27.01
41513;BME280;27244;59.940;30.280;2023-04-28T05:18:21;101278.34;;;24.72;27.12
41513;BME280;27244;59.940;30.280;2023-04-28T05:20:49;101283.19;;;24.71;27.16
41513;BME280;27244;59.940;30.280;2023-04-28T05:23:17;101283.19;;;24.71;27.22
41513;BME280;27244;59.940;30.280;2023-04-28T05:25:44;101269.97;;;24.68;27.01
41513;BME280;27244;59.940;30.280;2023-04-28T05:28:12;101275.97;;;24.70;27.48
41513;BME280;27244;59.940;30.280;2023-04-28T05:30:40;101277.56;;;24.71;27.34
41513;BME280;27244;59.940;30.280;2023-04-28T05:33:08;101284.00;;;24.72;27.27
41513;BME280;27244;59.940;30.280;2023-04-28T05:35:37;101287.97;;;24.74;27.49
41513;BME280;27244;59.940;30.280;2023-04-28T05:38:04;101281.97;;;24.72;27.44
41513;BME280;27244;59.940;30.280;2023-04-28T05:40:31;101284.78;;;24.72;27.48
41513;BME280;27244;59.940;30.280;2023-04-28T05:42:59;101282.41;;;24.71;27.49
41513;BME280;27244;59.940;30.280;2023-04-28T05:45:26;101288.41;;;24.73;27.75
41513;BME280;27244;59.940;30.280;2023-04-28T05:47:53;101287.97;;;24.74;27.61
41513;BME280;27244;59.940;30.280;2023-04-28T05:50:20;101285.16;;;24.74;27.87
41513;BME280;27244;59.940;30.280;2023-04-28T05:52:50;101296.00;;;24.76;27.77
41513;BME280;27244;59.940;30.280;2023-04-28T05:55:17;101296.44;;;24.74;27.72
41513;BME280;27244;59.940;30.280;2023-04-28T05:57:44;101292.03;;;24.73;28.03
41513;BME280;27244;59.940;30.280;2023-04-28T06:00:12;101296.00;;;24.76;27.89
41513;BME280;27244;59.940;30.280;2023-04-28T06:02:39;101286.00;;;24.71;27.93
41513;BME280;27244;59.940;30.280;2023-04-28T06:05:08;101292.38;;;24.75;28.15
41513;BME280;27244;59.940;30.280;2023-04-28T06:07:35;101296.78;;;24.76;28.10
41513;BME280;27244;59.940;30.280;2023-04-28T06:10:04;101289.22;;;24.73;28.12
41513;BME280;27244;59.940;30.280;2023-04-28T06:12:31;101294.41;;;24.75;28.28
41513;BME280;27244;59.940;30.280;2023-04-28T06:14:59;101300.41;;;24.77;28.16
41513;BME280;27244;59.940;30.280;2023-04-28T06:17:26;101308.88;;;24.77;28.16
41513;BME280;27244;59.940;30.280;2023-04-28T06:19:55;101308.88;;;24.77;28.36
41513;BME280;27244;59.940;30.280;2023-04-28T06:22:23;101313.72;;;24.76;28.10
41513;BME280;27244;59.940;30.280;2023-04-28T06:24:50;101314.53;;;24.77;28.41
41513;BME280;27244;59.940;30.280;2023-04-28T06:27:25;101312.84;;;24.79;28.45
41513;BME280;27244;59.940;30.280;2023-04-28T06:29:52;101316.13;;;24.78;28.39
41513;BME280;27244;59.940;30.280;2023-04-28T06:32:19;101322.09;;;24.80;28.71
41513;BME280;27244;59.940;30.280;2023-04-28T06:34:46;101328.53;;;24.80;28.89
41513;BME280;27244;59.940;30.280;2023-04-28T06:37:13;101327.75;;;24.80;28.86
41513;BME280;27244;59.940;30.280;2023-04-28T06:39:40;101328.53;;;24.80;28.86
41513;BME280;27244;59.940;30.280;2023-04-28T06:42:07;101330.91;;;24.82;28.96
41513;BME280;27244;59.940;30.280;2023-04-28T06:44:37;101329.69;;;24.83;29.13
41513;BME280;27244;59.940;30.280;2023-04-28T06:47:04;101333.34;;;24.83;29.53
41513;BME280;27244;59.940;30.280;2023-04-28T06:49:31;101336.16;;;24.83;29.19
41513;BME280;27244;59.940;30.280;2023-04-28T06:51:59;101334.94;;;24.84;29.45
41513;BME280;27244;59.940;30.280;2023-04-28T06:54:29;101329.28;;;24.84;29.53
41513;BME280;27244;59.940;30.280;2023-04-28T06:56:56;101340.13;;;24.86;29.57
41513;BME280;27244;59.940;30.280;2023-04-28T06:59:23;101342.16;;;24.85;29.64
41513;BME280;27244;59.940;30.280;2023-04-28T07:01:51;101341.72;;;24.87;29.72
41513;BME280;27244;59.940;30.280;2023-04-28T07:04:18;101353.81;;;24.87;29.79
41513;BME280;27244;59.940;30.280;2023-04-28T07:06:45;101348.59;;;24.86;29.79
41513;BME280;27244;59.940;30.280;2023-04-28T07:09:12;101348.16;;;24.87;29.96
41513;BME280;27244;59.940;30.280;2023-04-28T07:11:40;101346.13;;;24.88;29.82
41513;BME280;27244;59.940;30.280;2023-04-28T07:14:07;101348.16;;;24.87;29.94
41513;BME280;27244;59.940;30.280;2023-04-28T07:16:34;101344.53;;;24.87;29.96
41513;BME280;27244;59.940;30.280;2023-04-28T07:19:03;101352.94;;;24.90;30.09
41513;BME280;27244;59.940;30.280;2023-04-28T07:21:30;101357.78;;;24.90;30.28
41513;BME280;27244;59.940;30.280;2023-04-28T07:23:57;101352.94;;;24.90;30.38
41513;BME280;27244;59.940;30.280;2023-04-28T07:26:24;101354.16;;;24.89;30.58
41513;BME280;27244;59.940;30.280;2023-04-28T07:28:51;101357.34;;;24.91;30.69
41513;BME280;27244;59.940;30.280;2023-04-28T07:31:17;101352.94;;;24.90;30.40
41513;BME280;27244;59.940;30.280;2023-04-28T07:33:46;101345.69;;;24.89;30.63
41513;BME280;27244;59.940;30.280;2023-04-28T07:36:14;101347.19;;;24.94;30.49
41513;BME280;27244;59.940;30.280;2023-04-28T07:38:41;101350.44;;;24.92;30.76
41513;BME280;27244;59.940;30.280;2023-04-28T07:41:08;101363.34;;;24.93;30.59
41513;BME280;27244;59.940;30.280;2023-04-28T07:43:35;101361.72;;;24.92;30.91
41513;BME280;27244;59.940;30.280;2023-04-28T07:46:02;101357.69;;;24.93;30.67
41513;BME280;27244;59.940;30.280;2023-04-28T07:48:29;101359.28;;;24.94;31.01
41513;BME280;27244;59.940;30.280;2023-04-28T07:50:56;101352.13;;;24.90;30.67
41513;BME280;27244;59.940;30.280;2023-04-28T07:53:25;101366.06;;;24.97;30.76
41513;BME280;27244;59.940;30.280;2023-04-28T07:55:53;101376.56;;;24.96;30.75
41513;BME280;27244;59.940;30.280;2023-04-28T07:58:20;101374.63;;;24.93;30.79
41513;BME280;27244;59.940;30.280;2023-04-28T08:00:47;101364.56;;;24.92;30.88
41513;BME280;27244;59.940;30.280;2023-04-28T08:03:14;101380.63;;;24.95;30.68
41513;BME280;27244;59.940;30.280;2023-04-28T08:05:41;101375.00;;;24.95;30.48
41513;BME280;27244;59.940;30.280;2023-04-28T08:08:09;101380.63;;;24.95;30.25
41513;BME280;27244;59.940;30.280;2023-04-28T08:10:38;101373.03;;;24.92;30.50
41513;BME280;27244;59.940;30.280;2023-04-28T08:13:06;101368.56;;;24.95;30.39
41513;BME280;27244;59.940;30.280;2023-04-28T08:15:33;101360.97;;;24.92;30.49
41513;BME280;27244;59.940;30.280;2023-04-28T08:18:01;101366.63;;;24.92;30.63
41513;BME280;27244;59.940;30.280;2023-04-28T08:20:28;101363.88;;;24.88;30.62
41513;BME280;27244;59.940;30.280;2023-04-28T08:22:57;101365.34;;;24.93;31.54
41513;BME280;27244;59.940;30.280;2023-04-28T08:25:24;101370.19;;;24.92;31.63
41513;BME280;27244;59.940;30.280;2023-04-28T08:27:52;101367.38;;;24.92;31.52
41513;BME280;27244;59.940;30.280;2023-04-28T08:30:20;101368.25;;;24.89;31.63
41513;BME280;27244;59.940;30.280;2023-04-28T08:32:47;101361.72;;;24.92;31.65
41513;BME280;27244;59.940;30.280;2023-04-28T08:35:14;101358.91;;;24.92;31.39
41513;BME280;27244;59.940;30.280;2023-04-28T08:37:42;101361.72;;;24.92;30.75
41513;BME280;27244;59.940;30.280;2023-04-28T08:40:09;101361.72;;;24.92;29.82
41513;BME280;27244;59.940;30.280;2023-04-28T08:42:36;101360.16;;;24.91;30.82
41513;BME280;27244;59.940;30.280;2023-04-28T08:45:06;101360.88;;;24.95;30.81
41513;BME280;27244;59.940;30.280;2023-04-28T08:47:34;101360.97;;;24.92;31.07
41513;BME280;27244;59.940;30.280;2023-04-28T08:50:03;101354.53;;;24.91;31.00
41513;BME280;27244;59.940;30.280;2023-04-28T08:52:31;101352.94;;;24.90;31.03
41513;BME280;27244;59.940;30.280;2023-04-28T08:54:59;101355.75;;;24.90;30.81
41513;BME280;27244;59.940;30.280;2023-04-28T08:57:31;101360.16;;;24.91;30.50
41513;BME280;27244;59.940;30.280;2023-04-28T09:00:01;101353.72;;;24.91;30.11
41513;BME280;27244;59.940;30.280;2023-04-28T09:02:30;101356.09;;;24.92;30.29
41513;BME280;27244;59.940;30.280;2023-04-28T09:04:57;101354.53;;;24.91;29.45
41513;BME280;27244;59.940;30.280;2023-04-28T09:07:24;101358.56;;;24.90;28.93
41513;BME280;27244;59.940;30.280;2023-04-28T09:10:17;101360.72;;;25.03;28.97
41513;BME280;27244;59.940;30.280;2023-04-28T09:12:45;101350.09;;;24.90;28.62
41513;BME280;27244;59.940;30.280;2023-04-28T09:15:24;101351.06;;;25.00;28.76
41513;BME280;27244;59.940;30.280;2023-04-28T09:17:53;101350.44;;;24.92;29.20
41513;BME280;27244;59.940;30.280;2023-04-28T09:20:21;101344.47;;;24.90;29.62
41513;BME280;27244;59.940;30.280;2023-04-28T09:22:49;101353.72;;;24.91;30.18
41513;BME280;27244;59.940;30.280;2023-04-28T09:25:17;101350.91;;;24.91;30.21
41513;BME280;27244;59.940;30.280;2023-04-28T09:27:46;101350.44;;;24.92;30.08
41513;BME280;27244;59.940;30.280;2023-04-28T09:30:13;101350.44;;;24.92;30.58
41513;BME280;27244;59.940;30.280;2023-04-28T09:32:40;101344.47;;;24.90;30.88
41513;BME280;27244;59.940;30.280;2023-04-28T09:35:08;101345.53;;;24.96;31.29
41513;BME280;27244;59.940;30.280;2023-04-28T09:37:36;101347.53;;;24.96;31.20
41513;BME280;27244;59.940;30.280;2023-04-28T09:40:06;101353.56;;;24.98;31.58
41513;BME280;27244;59.940;30.280;2023-04-28T09:42:34;101343.94;;;24.95;31.50
41513;BME280;27244;59.940;30.280;2023-04-28T09:45:03;101342.28;;;24.98;31.79
41513;BME280;27244;59.940;30.280;2023-04-28T09:47:31;101343.06;;;24.98;31.51
41513;BME280;27244;59.940;30.280;2023-04-28T09:50:00;101350.31;;;25.00;31.62
41513;BME280;27244;59.940;30.280;2023-04-28T09:52:29;101347.81;;;25.02;31.55
41513;BME280;27244;59.940;30.280;2023-04-28T09:54:56;101346.22;;;25.01;31.43
41513;BME280;27244;59.940;30.280;2023-04-28T09:57:24;101348.63;;;25.02;31.47
41513;BME280;27244;59.940;30.280;2023-04-28T09:59:52;101342.97;;;25.02;31.95
41513;BME280;27244;59.940;30.280;2023-04-28T10:02:21;101345.00;;;25.02;31.84
41513;BME280;27244;59.940;30.280;2023-04-28T10:04:48;101347.81;;;25.02;31.51
41513;BME280;27244;59.940;30.280;2023-04-28T10:07:18;101354.63;;;25.04;31.59
41513;BME280;27244;59.940;30.280;2023-04-28T10:09:47;101355.41;;;25.05;31.58
41513;BME280;27244;59.940;30.280;2023-04-28T10:12:16;101365.09;;;25.04;31.67
41513;BME280;27244;59.940;30.280;2023-04-28T10:14:44;101354.63;;;25.04;31.49
41513;BME280;27244;59.940;30.280;2023-04-28T10:17:12;101351.78;;;25.04;30.86
41513;BME280;27244;59.940;30.280;2023-04-28T10:19:40;101359.84;;;25.06;30.71
41513;BME280;27244;59.940;30.280;2023-04-28T10:22:23;101346.06;;;25.08;30.69
41513;BME280;27244;59.940;30.280;2023-04-28T10:25:24;101359.56;;;25.16;30.22
41513;BME280;27244;59.940;30.280;2023-04-28T10:27:51;101350.22;;;25.03;29.98
41513;BME280;27244;59.940;30.280;2023-04-28T10:30:20;101353.81;;;25.04;30.07
41513;BME280;27244;59.940;30.280;2023-04-28T10:33:23;101342.00;;;25.09;29.75
41513;BME280;27244;59.940;30.280;2023-04-28T10:35:51;101352.25;;;25.03;29.46
41513;BME280;27244;59.940;30.280;2023-04-28T10:38:18;101354.69;;;25.01;29.33
41513;BME280;27244;59.940;30.280;2023-04-28T10:40:48;101348.63;;;25.02;29.08
41513;BME280;27244;59.940;30.280;2023-04-28T10:43:34;101352.06;;;25.10;29.06
41513;BME280;27244;59.940;30.280;2023-04-28T10:46:06;101356.63;;;25.04;29.50
41513;BME280;27244;59.940;30.280;2023-04-28T10:51:31;101342.91;;;25.06;28.99
41513;BME280;27244;59.940;30.280;2023-04-28T10:54:15;101343.16;;;25.11;28.94
41513;BME280;27244;59.940;30.280;2023-04-28T10:57:15;101341.13;;;25.12;28.49
41513;BME280;27244;59.940;30.280;2023-04-28T10:59:42;101342.19;;;25.02;28.50
41513;BME280;27244;59.940;30.280;2023-04-28T11:02:38;101349.25;;;25.10;28.12
41513;BME280;27244;59.940;30.280;2023-04-28T11:05:13;101342.09;;;25.05;28.08
41513;BME280;27244;59.940;30.280;2023-04-28T11:07:42;101344.22;;;25.01;27.68
41513;BME280;27244;59.940;30.280;2023-04-28T11:13:30;101345.44;;;25.00;27.65
41513;BME280;27244;59.940;30.280;2023-04-28T11:16:01;101353.47;;;25.02;27.25
41513;BME280;27244;59.940;30.280;2023-04-28T11:18:31;101345.53;;;24.96;27.19
41513;BME280;27244;59.940;30.280;2023-04-28T11:21:04;101351.16;;;24.96;27.00
41513;BME280;27244;59.940;30.280;2023-04-28T11:23:31;101347.53;;;24.96;26.84
41513;BME280;27244;59.940;30.280;2023-04-28T11:25:58;101350.38;;;24.96;26.71
41513;BME280;27244;59.940;30.280;2023-04-28T11:28:25;101348.78;;;24.95;26.36
41513;BME280;27244;59.940;30.280;2023-04-28T11:31:09;101345.72;;;25.06;26.61
41513;BME280;27244;59.940;30.280;2023-04-28T11:33:37;101342.44;;;24.91;26.25
41513;BME280;27244;59.940;30.280;2023-04-28T11:36:04;101347.63;;;24.92;26.16
41513;BME280;27244;59.940;30.280;2023-04-28T11:38:42;101358.69;;;25.03;26.13
41513;BME280;27244;59.940;30.280;2023-04-28T11:41:09;101343.22;;;24.91;25.98
41513;BME280;27244;59.940;30.280;2023-04-28T11:43:36;101357.25;;;24.95;25.83
41513;BME280;27244;59.940;30.280;2023-04-28T11:46:06;101351.16;;;24.96;25.71
41513;BME280;27244;59.940;30.280;2023-04-28T11:48:33;101350.44;;;24.92;25.84
41513;BME280;27244;59.940;30.280;2023-04-28T11:51:00;101350.44;;;24.92;26.02
41513;BME280;27244;59.940;30.280;2023-04-28T11:53:40;101347.03;;;25.01;25.97
41513;BME280;27244;59.940;30.280;2023-04-28T11:56:07;101340.41;;;24.91;26.78
41513;BME280;27244;59.940;30.280;2023-04-28T11:58:34;101346.41;;;24.93;27.31
41513;BME280;27244;59.940;30.280;2023-04-28T12:01:10;101350.31;;;25.00;27.80
41513;BME280;27244;59.940;30.280;2023-04-28T12:03:43;101350.31;;;25.00;28.01
41513;BME280;27244;59.940;30.280;2023-04-28T12:06:10;101348.41;;;24.93;27.87
41513;BME280;27244;59.940;30.280;2023-04-28T12:08:37;101348.88;;;24.91;27.78
41513;BME280;27244;59.940;30.280;2023-04-28T12:11:08;101359.19;;;24.98;28.03
41513;BME280;27244;59.940;30.280;2023-04-28T12:13:35;101354.88;;;24.93;27.79
41513;BME280;27244;59.940;30.280;2023-04-28T12:16:03;101351.25;;;24.93;26.07
41513;BME280;27244;59.940;30.280;2023-04-28T12:18:33;101368.97;;;24.93;25.60
41513;BME280;27244;59.940;30.280;2023-04-28T12:21:00;101362.53;;;24.93;25.82
41513;BME280;27244;59.940;30.280;2023-04-28T12:23:29;101363.34;;;24.93;25.73
41513;BME280;27244;59.940;30.280;2023-04-28T12:25:56;101363.34;;;24.93;25.72
41513;BME280;27244;59.940;30.280;2023-04-28T12:28:35;101368.38;;;25.02;25.93
41513;BME280;27244;59.940;30.280;2023-04-28T12:31:03;101368.19;;;24.93;25.66
41513;BME280;27244;59.940;30.280;2023-04-28T12:33:33;101372.19;;;24.95;25.83
41513;BME280;27244;59.940;30.280;2023-04-28T12:36:03;101368.56;;;24.95;25.78
41513;BME280;27244;59.940;30.280;2023-04-28T12:38:30;101373.03;;;24.92;25.43
41513;BME280;27244;59.940;30.280;2023-04-28T12:40:57;101377.91;;;24.92;25.83
41513;BME280;27244;59.940;30.280;2023-04-28T12:43:25;101375.50;;;24.90;25.42
41513;BME280;27244;59.940;30.280;2023-04-28T12:45:53;101375.16;;;24.88;24.96
41513;BME280;27244;59.940;30.280;2023-04-28T12:48:21;101377.53;;;24.90;25.18
41513;BME280;27244;59.940;30.280;2023-04-28T12:50:50;101383.16;;;24.90;25.16
41513;BME280;27244;59.940;30.280;2023-04-28T12:53:17;101385.66;;;24.88;25.06
41513;BME280;27244;59.940;30.280;2023-04-28T12:55:44;101379.63;;;24.86;25.29